createdAt,value
2016-06-24T00:00:12.661Z,1015.54
2016-06-24T00:01:12.644Z,1015.53
2016-06-24T00:02:12.619Z,1015.59
2016-06-24T00:03:12.602Z,1015.51
2016-06-24T00:04:12.601Z,1015.5
2016-06-24T00:05:12.573Z,1015.59
2016-06-24T00:06:12.568Z,1015.55
2016-06-24T00:07:12.556Z,1015.58
2016-06-24T00:08:12.534Z,1015.5
2016-06-24T00:09:12.526Z,1015.54
2016-06-24T00:10:12.506Z,1015.53
2016-06-24T00:11:12.489Z,1015.49
2016-06-24T00:12:12.474Z,1015.52
2016-06-24T00:13:12.450Z,1015.5
2016-06-24T00:14:12.444Z,1015.5
2016-06-24T00:15:12.429Z,1015.49
2016-06-24T00:16:12.418Z,1015.44
2016-06-24T00:17:12.399Z,1015.48
2016-06-24T00:18:12.390Z,1015.42
2016-06-24T00:19:12.381Z,1015.41
2016-06-24T00:20:12.361Z,1015.39
2016-06-24T00:21:12.346Z,1015.45
2016-06-24T00:22:12.303Z,1015.43
2016-06-24T00:23:12.290Z,1015.44
2016-06-24T00:24:12.271Z,1015.38
2016-06-24T00:25:12.246Z,1015.41
2016-06-24T00:26:12.227Z,1015.43
2016-06-24T00:27:12.223Z,1015.44
2016-06-24T00:28:12.207Z,1015.4
2016-06-24T00:29:12.197Z,1015.42
2016-06-24T00:30:12.183Z,1015.45
2016-06-24T00:31:12.157Z,1015.39
2016-06-24T00:32:12.146Z,1015.39
2016-06-24T00:33:12.128Z,1015.43
2016-06-24T00:34:12.114Z,1015.4
2016-06-24T00:35:12.099Z,1015.37
2016-06-24T00:36:12.089Z,1015.43
2016-06-24T00:37:12.067Z,1015.37
2016-06-24T00:38:12.055Z,1015.42
2016-06-24T00:39:12.040Z,1015.4
2016-06-24T00:40:12.030Z,1015.36
2016-06-24T00:41:12.014Z,1015.37
2016-06-24T00:42:12.003Z,1015.34
2016-06-24T00:43:11.980Z,1015.35
2016-06-24T00:44:11.971Z,1015.39
2016-06-24T00:45:11.969Z,1015.36
2016-06-24T00:46:11.935Z,1015.42
2016-06-24T00:47:11.924Z,1015.36
2016-06-24T00:48:11.916Z,1015.45
2016-06-24T00:49:11.901Z,1015.39
2016-06-24T00:50:11.879Z,1015.38
2016-06-24T00:51:11.868Z,1015.4
2016-06-24T00:52:11.855Z,1015.42
2016-06-24T00:53:11.837Z,1015.45
2016-06-24T00:54:11.823Z,1015.46
2016-06-24T00:55:11.809Z,1015.45
2016-06-24T00:56:11.792Z,1015.46
2016-06-24T00:57:11.776Z,1015.46
2016-06-24T00:58:11.764Z,1015.44
2016-06-24T00:59:11.750Z,1015.44
2016-06-24T01:00:11.737Z,1015.43
2016-06-24T01:01:11.721Z,1015.42
2016-06-24T01:02:11.707Z,1015.46
2016-06-24T01:03:11.688Z,1015.44
2016-06-24T01:04:11.686Z,1015.42
2016-06-24T01:05:11.661Z,1015.44
2016-06-24T01:06:11.651Z,1015.4
2016-06-24T01:07:11.633Z,1015.41
2016-06-24T01:08:11.619Z,1015.38
2016-06-24T01:09:11.607Z,1015.4
2016-06-24T01:10:11.593Z,1015.39
2016-06-24T01:11:11.574Z,1015.42
2016-06-24T01:12:11.560Z,1015.4
2016-06-24T01:13:11.550Z,1015.35
2016-06-24T01:14:11.531Z,1015.37
2016-06-24T01:15:11.517Z,1015.38
2016-06-24T01:16:11.500Z,1015.37
2016-06-24T01:17:11.487Z,1015.35
2016-06-24T01:18:11.470Z,1015.35
2016-06-24T01:19:11.461Z,1015.26
2016-06-24T01:20:11.444Z,1015.3
2016-06-24T01:21:11.428Z,1015.3
2016-06-24T01:22:11.414Z,1015.28
2016-06-24T01:23:11.402Z,1015.28
2016-06-24T01:24:11.385Z,1015.28
2016-06-24T01:25:11.376Z,1015.26
2016-06-24T01:26:11.361Z,1015.29
2016-06-24T01:27:11.345Z,1015.28
2016-06-24T01:28:11.331Z,1015.27
2016-06-24T01:29:11.313Z,1015.26
2016-06-24T01:30:11.298Z,1015.27
2016-06-24T01:31:11.284Z,1015.24
2016-06-24T01:32:11.269Z,1015.26
2016-06-24T01:33:11.255Z,1015.26
2016-06-24T01:34:11.237Z,1015.27
2016-06-24T01:35:11.223Z,1015.2
2016-06-24T01:36:11.212Z,1015.23
2016-06-24T01:37:11.195Z,1015.31
2016-06-24T01:38:11.179Z,1015.2
2016-06-24T01:39:11.175Z,1015.25
2016-06-24T01:40:11.149Z,1015.17
2016-06-24T01:41:11.143Z,1015.25
2016-06-24T01:42:11.123Z,1015.19
2016-06-24T01:43:11.110Z,1015.22
2016-06-24T01:44:11.094Z,1015.21
2016-06-24T01:45:11.077Z,1015.15
2016-06-24T01:46:11.065Z,1015.18
2016-06-24T01:47:11.046Z,1015.2
2016-06-24T01:48:11.038Z,1015.23
2016-06-24T01:49:11.018Z,1015.22
2016-06-24T01:50:11.007Z,1015.19
2016-06-24T01:51:10.993Z,1015.2
2016-06-24T01:52:10.976Z,1015.2
2016-06-24T01:53:10.959Z,1015.18
2016-06-24T01:54:10.942Z,1015.2
2016-06-24T01:55:10.936Z,1015.18
2016-06-24T01:56:10.914Z,1015.2
2016-06-24T01:57:10.904Z,1015.21
2016-06-24T01:58:10.886Z,1015.17
2016-06-24T01:59:10.870Z,1015.11
2016-06-24T02:00:10.861Z,1015.16
2016-06-24T02:01:10.846Z,1015.17
2016-06-24T02:02:10.824Z,1015.14
2016-06-24T02:03:10.822Z,1015.13
2016-06-24T02:04:10.805Z,1015.18
2016-06-24T02:05:10.787Z,1015.16
2016-06-24T02:06:10.768Z,1015.15
2016-06-24T02:07:10.765Z,1015.18
2016-06-24T02:08:10.741Z,1015.17
2016-06-24T02:09:10.725Z,1015.2
2016-06-24T02:10:10.714Z,1015.21
2016-06-24T02:11:10.697Z,1015.17
2016-06-24T02:12:10.688Z,1015.23
2016-06-24T02:13:10.667Z,1015.21
2016-06-24T02:14:10.674Z,1015.21
2016-06-24T02:15:10.636Z,1015.19
2016-06-24T02:16:10.625Z,1015.16
2016-06-24T02:17:10.607Z,1015.22
2016-06-24T02:18:10.593Z,1015.2
2016-06-24T02:19:10.587Z,1015.16
2016-06-24T02:20:10.568Z,1015.13
2016-06-24T02:21:10.549Z,1015.21
2016-06-24T02:22:10.541Z,1015.24
2016-06-24T02:23:10.522Z,1015.21
2016-06-24T02:24:10.505Z,1015.21
2016-06-24T02:25:10.491Z,1015.24
2016-06-24T02:26:10.480Z,1015.2
2016-06-24T02:27:10.461Z,1015.19
2016-06-24T02:28:10.455Z,1015.18
2016-06-24T02:29:10.439Z,1015.21
2016-06-24T02:30:10.416Z,1015.21
2016-06-24T02:31:10.402Z,1015.16
2016-06-24T02:32:10.391Z,1015.15
2016-06-24T02:33:10.390Z,1015.14
2016-06-24T02:34:10.359Z,1015.15
2016-06-24T02:35:10.352Z,1015.17
2016-06-24T02:36:10.335Z,1015.09
2016-06-24T02:37:10.315Z,1015.1
2016-06-24T02:38:10.299Z,1015.12
2016-06-24T02:39:10.287Z,1015.12
2016-06-24T02:40:10.278Z,1015.18
2016-06-24T02:41:10.262Z,1015.12
2016-06-24T02:42:10.244Z,1015.08
2016-06-24T02:43:10.228Z,1015.11
2016-06-24T02:44:10.214Z,1015.17
2016-06-24T02:45:10.198Z,1015.11
2016-06-24T02:46:10.187Z,1015.21
2016-06-24T02:47:10.167Z,1015.15
2016-06-24T02:48:10.153Z,1015.14
2016-06-24T02:49:10.141Z,1015.12
2016-06-24T02:50:10.124Z,1015.14
2016-06-24T02:51:10.111Z,1015.07
2016-06-24T02:52:10.099Z,1015.11
2016-06-24T02:53:10.079Z,1015.1
2016-06-24T02:54:10.069Z,1015.11
2016-06-24T02:55:10.053Z,1015.09
2016-06-24T02:56:10.041Z,1015.18
2016-06-24T02:57:10.022Z,1015.14
2016-06-24T02:58:10.008Z,1015.15
2016-06-24T02:59:09.996Z,1015.16
2016-06-24T03:00:09.981Z,1015.15
2016-06-24T03:01:09.967Z,1015.09
2016-06-24T03:02:09.950Z,1015.13
2016-06-24T03:03:09.938Z,1015.15
2016-06-24T03:04:09.930Z,1015.06
2016-06-24T03:05:09.904Z,1015.1
2016-06-24T03:06:09.887Z,1015.13
2016-06-24T03:07:09.875Z,1015.15
2016-06-24T03:08:09.862Z,1015.14
2016-06-24T03:09:09.843Z,1015.12
2016-06-24T03:10:09.831Z,1015.11
2016-06-24T03:11:09.817Z,1015.14
2016-06-24T03:12:09.803Z,1015.11
2016-06-24T03:13:09.790Z,1015.1
2016-06-24T03:14:09.770Z,1015.1
2016-06-24T03:15:09.764Z,1015.14
2016-06-24T03:16:09.742Z,1015.11
2016-06-24T03:17:09.731Z,1015.08
2016-06-24T03:18:09.718Z,1015.08
2016-06-24T03:19:09.701Z,1015.11
2016-06-24T03:20:09.686Z,1015.05
2016-06-24T03:21:09.689Z,1015.02
2016-06-24T03:22:09.656Z,1015.06
2016-06-24T03:23:09.641Z,1015.03
2016-06-24T03:24:09.625Z,1015.01
2016-06-24T03:25:09.610Z,1015
2016-06-24T03:26:09.596Z,1015.01
2016-06-24T03:27:09.586Z,1015
2016-06-24T03:28:09.568Z,1014.95
2016-06-24T03:29:09.551Z,1015.04
2016-06-24T03:30:09.539Z,1015.01
2016-06-24T03:31:09.527Z,1015.03
2016-06-24T03:32:09.506Z,1015.02
2016-06-24T03:33:09.492Z,1015
2016-06-24T03:34:09.485Z,1015.02
2016-06-24T03:35:09.465Z,1014.95
2016-06-24T03:36:09.447Z,1015.03
2016-06-24T03:37:09.436Z,1014.96
2016-06-24T03:38:09.420Z,1014.98
2016-06-24T03:39:09.403Z,1014.97
2016-06-24T03:40:09.386Z,1015
2016-06-24T03:41:09.376Z,1015.02
2016-06-24T03:42:09.359Z,1014.95
2016-06-24T03:43:09.346Z,1015
2016-06-24T03:44:09.330Z,1015.03
2016-06-24T03:45:09.314Z,1015
2016-06-24T03:46:09.305Z,1014.97
2016-06-24T03:47:09.291Z,1015.02
2016-06-24T03:48:09.269Z,1015.02
2016-06-24T03:49:09.256Z,1015.08
2016-06-24T03:50:09.243Z,1015.07
2016-06-24T03:51:09.228Z,1015.08
2016-06-24T03:52:09.212Z,1015.13
2016-06-24T03:53:09.197Z,1015.13
2016-06-24T03:54:09.187Z,1015.12
2016-06-24T03:55:09.166Z,1015.06
2016-06-24T03:56:09.153Z,1015.18
2016-06-24T03:57:09.141Z,1015.08
2016-06-24T03:58:09.124Z,1015.11
2016-06-24T03:59:09.104Z,1015.13
2016-06-24T04:00:09.098Z,1015.09
2016-06-24T04:01:09.081Z,1015.05
2016-06-24T04:02:09.068Z,1015.04
2016-06-24T04:03:09.054Z,1015.06
2016-06-24T04:04:09.042Z,1015.1
2016-06-24T04:05:09.021Z,1015.06
2016-06-24T04:06:09.009Z,1015.08
2016-06-24T04:07:08.995Z,1015.03
2016-06-24T04:08:08.976Z,1015
2016-06-24T04:09:08.958Z,1015.03
2016-06-24T04:10:08.955Z,1015.04
2016-06-24T04:11:08.931Z,1015.02
2016-06-24T04:12:08.918Z,1015.1
2016-06-24T04:13:08.904Z,1015.09
2016-06-24T04:14:08.890Z,1015.14
2016-06-24T04:15:08.874Z,1015.15
2016-06-24T04:16:08.862Z,1015.11
2016-06-24T04:17:08.846Z,1015.11
2016-06-24T04:18:08.829Z,1015.12
2016-06-24T04:19:08.819Z,1015.17
2016-06-24T04:20:08.808Z,1015.16
2016-06-24T04:21:08.782Z,1015.21
2016-06-24T04:22:08.769Z,1015.23
2016-06-24T04:23:08.758Z,1015.19
2016-06-24T04:24:08.740Z,1015.16
2016-06-24T04:25:08.729Z,1015.21
2016-06-24T04:26:08.720Z,1015.15
2016-06-24T04:27:08.704Z,1015.17
2016-06-24T04:28:08.684Z,1015.16
2016-06-24T04:29:08.674Z,1015.2
2016-06-24T04:30:08.653Z,1015.16
2016-06-24T04:31:08.635Z,1015.2
2016-06-24T04:32:08.624Z,1015.18
2016-06-24T04:33:08.608Z,1015.2
2016-06-24T04:34:08.591Z,1015.21
2016-06-24T04:35:08.576Z,1015.2
2016-06-24T04:36:08.570Z,1015.17
2016-06-24T04:37:08.550Z,1015.28
2016-06-24T04:38:08.538Z,1015.24
2016-06-24T04:39:08.523Z,1015.26
2016-06-24T04:40:08.502Z,1015.25
2016-06-24T04:41:08.492Z,1015.31
2016-06-24T04:42:08.480Z,1015.32
2016-06-24T04:43:08.462Z,1015.29
2016-06-24T04:44:08.450Z,1015.32
2016-06-24T04:45:08.435Z,1015.36
2016-06-24T04:46:08.423Z,1015.33
2016-06-24T04:47:08.406Z,1015.31
2016-06-24T04:48:08.387Z,1015.37
2016-06-24T04:49:08.378Z,1015.32
2016-06-24T04:50:08.358Z,1015.4
2016-06-24T04:51:08.347Z,1015.33
2016-06-24T04:52:08.330Z,1015.37
2016-06-24T04:53:08.329Z,1015.36
2016-06-24T04:54:08.300Z,1015.35
2016-06-24T04:55:08.288Z,1015.33
2016-06-24T04:56:08.267Z,1015.35
2016-06-24T04:57:08.258Z,1015.33
2016-06-24T04:58:08.246Z,1015.27
2016-06-24T04:59:08.237Z,1015.32
2016-06-24T05:00:08.210Z,1015.29
2016-06-24T05:01:08.201Z,1015.33
2016-06-24T05:02:08.186Z,1015.33
2016-06-24T05:03:08.169Z,1015.34
2016-06-24T05:04:08.163Z,1015.41
2016-06-24T05:05:08.141Z,1015.39
2016-06-24T05:06:08.126Z,1015.4
2016-06-24T05:07:08.108Z,1015.41
2016-06-24T05:08:08.098Z,1015.41
2016-06-24T05:09:08.083Z,1015.42
2016-06-24T05:10:08.071Z,1015.42
2016-06-24T05:11:08.059Z,1015.43
2016-06-24T05:12:08.035Z,1015.37
2016-06-24T05:13:08.029Z,1015.43
2016-06-24T05:14:08.011Z,1015.4
2016-06-24T05:15:07.994Z,1015.42
2016-06-24T05:16:07.976Z,1015.46
2016-06-24T05:17:07.966Z,1015.43
2016-06-24T05:18:07.950Z,1015.43
2016-06-24T05:19:07.937Z,1015.45
2016-06-24T05:20:07.918Z,1015.44
2016-06-24T05:21:07.906Z,1015.4
2016-06-24T05:22:07.885Z,1015.39
2016-06-24T05:23:07.881Z,1015.4
2016-06-24T05:24:07.863Z,1015.41
2016-06-24T05:25:07.850Z,1015.45
2016-06-24T05:26:07.836Z,1015.48
2016-06-24T05:27:07.822Z,1015.47
2016-06-24T05:28:07.804Z,1015.51
2016-06-24T05:29:07.808Z,1015.46
2016-06-24T05:30:07.773Z,1015.56
2016-06-24T05:31:07.760Z,1015.56
2016-06-24T05:32:07.740Z,1015.53
2016-06-24T05:33:07.727Z,1015.54
2016-06-24T05:34:07.718Z,1015.53
2016-06-24T05:35:07.705Z,1015.55
2016-06-24T05:36:07.698Z,1015.58
2016-06-24T05:37:07.669Z,1015.55
2016-06-24T05:38:07.658Z,1015.57
2016-06-24T05:39:07.642Z,1015.57
2016-06-24T05:40:07.626Z,1015.55
2016-06-24T05:41:07.610Z,1015.57
2016-06-24T05:42:07.601Z,1015.54
2016-06-24T05:43:07.583Z,1015.54
2016-06-24T05:44:07.568Z,1015.6
2016-06-24T05:45:07.553Z,1015.55
2016-06-24T05:46:07.547Z,1015.55
2016-06-24T05:47:07.532Z,1015.6
2016-06-24T05:48:07.515Z,1015.64
2016-06-24T05:49:07.500Z,1015.62
2016-06-24T05:50:07.484Z,1015.61
2016-06-24T05:51:07.469Z,1015.67
2016-06-24T05:52:07.455Z,1015.63
2016-06-24T05:53:07.439Z,1015.73
2016-06-24T05:54:07.426Z,1015.68
2016-06-24T05:55:07.406Z,1015.63
2016-06-24T05:56:07.394Z,1015.63
2016-06-24T05:57:07.385Z,1015.61
2016-06-24T05:58:07.368Z,1015.62
2016-06-24T05:59:07.348Z,1015.64
2016-06-24T06:00:07.335Z,1015.67
2016-06-24T06:01:07.327Z,1015.7
2016-06-24T06:02:07.309Z,1015.66
2016-06-24T06:03:07.291Z,1015.69
2016-06-24T06:04:07.279Z,1015.71
2016-06-24T06:05:07.262Z,1015.65
2016-06-24T06:06:07.250Z,1015.69
2016-06-24T06:07:07.235Z,1015.6
2016-06-24T06:08:07.220Z,1015.61
2016-06-24T06:09:07.208Z,1015.6
2016-06-24T06:10:07.189Z,1015.57
2016-06-24T06:11:07.175Z,1015.56
2016-06-24T06:12:07.167Z,1015.6
2016-06-24T06:13:07.147Z,1015.54
2016-06-24T06:14:07.131Z,1015.5
2016-06-24T06:15:07.117Z,1015.49
2016-06-24T06:16:07.101Z,1015.49
2016-06-24T06:17:07.133Z,1015.52
2016-06-24T06:18:07.072Z,1015.5
2016-06-24T06:19:07.066Z,1015.49
2016-06-24T06:20:07.162Z,1015.52
2016-06-24T06:21:07.030Z,1015.48
2016-06-24T06:22:07.019Z,1015.48
2016-06-24T06:23:07.030Z,1015.45
2016-06-24T06:24:06.990Z,1015.49
2016-06-24T06:25:06.970Z,1015.54
2016-06-24T06:26:06.963Z,1015.54
2016-06-24T06:27:06.945Z,1015.54
2016-06-24T06:28:06.926Z,1015.53
2016-06-24T06:29:06.910Z,1015.63
2016-06-24T06:30:06.901Z,1015.67
2016-06-24T06:31:06.883Z,1015.61
2016-06-24T06:32:06.872Z,1015.62
2016-06-24T06:33:06.857Z,1015.67
2016-06-24T06:34:06.839Z,1015.63
2016-06-24T06:35:06.827Z,1015.63
2016-06-24T06:36:06.813Z,1015.61
2016-06-24T06:37:06.795Z,1015.64
2016-06-24T06:38:06.783Z,1015.6
2016-06-24T06:39:06.774Z,1015.6
2016-06-24T06:40:06.751Z,1015.6
2016-06-24T06:41:06.737Z,1015.63
2016-06-24T06:42:06.723Z,1015.61
2016-06-24T06:43:06.708Z,1015.62
2016-06-24T06:44:06.694Z,1015.63
2016-06-24T06:45:06.681Z,1015.64
2016-06-24T06:46:06.666Z,1015.63
2016-06-24T06:47:06.654Z,1015.68
2016-06-24T06:48:06.635Z,1015.73
2016-06-24T06:49:06.621Z,1015.72
2016-06-24T06:50:06.614Z,1015.7
2016-06-24T06:51:06.597Z,1015.71
2016-06-24T06:52:06.579Z,1015.69
2016-06-24T06:53:06.568Z,1015.68
2016-06-24T06:54:06.551Z,1015.65
2016-06-24T06:55:06.535Z,1015.7
2016-06-24T06:56:06.521Z,1015.71
2016-06-24T06:57:06.508Z,1015.68
2016-06-24T06:58:06.494Z,1015.72
2016-06-24T06:59:06.481Z,1015.73
2016-06-24T07:00:06.463Z,1015.72
2016-06-24T07:01:06.451Z,1015.73
2016-06-24T07:02:06.432Z,1015.75
2016-06-24T07:03:06.423Z,1015.78
2016-06-24T07:04:06.401Z,1015.85
2016-06-24T07:05:06.388Z,1015.74
2016-06-24T07:06:06.379Z,1015.82
2016-06-24T07:07:06.358Z,1015.82
2016-06-24T07:08:06.347Z,1015.69
2016-06-24T07:09:06.339Z,1015.73
2016-06-24T07:10:06.318Z,1015.77
2016-06-24T07:11:06.304Z,1015.83
2016-06-24T07:12:06.291Z,1015.79
2016-06-24T07:13:06.274Z,1015.85
2016-06-24T07:14:06.264Z,1015.87
2016-06-24T07:15:06.247Z,1015.82
2016-06-24T07:16:06.231Z,1015.87
2016-06-24T07:17:06.236Z,1015.86
2016-06-24T07:18:06.207Z,1015.82
2016-06-24T07:19:06.188Z,1015.84
2016-06-24T07:20:06.174Z,1015.88
2016-06-24T07:21:06.163Z,1015.92
2016-06-24T07:22:06.145Z,1015.84
2016-06-24T07:23:06.141Z,1015.83
2016-06-24T07:24:06.119Z,1015.84
2016-06-24T07:25:06.101Z,1015.82
2016-06-24T07:27:06.089Z,1015.83
2016-06-24T07:28:06.057Z,1015.81
2016-06-24T07:29:06.092Z,1015.86
2016-06-24T07:30:06.031Z,1015.84
2016-06-24T07:31:06.017Z,1015.9
2016-06-24T07:32:06.010Z,1015.86
2016-06-24T07:33:05.988Z,1015.9
2016-06-24T07:34:05.973Z,1015.9
2016-06-24T07:35:05.963Z,1015.9
2016-06-24T07:36:05.942Z,1015.95
2016-06-24T07:37:05.935Z,1015.96
2016-06-24T07:38:05.917Z,1015.97
2016-06-24T07:39:05.907Z,1015.96
2016-06-24T07:40:05.896Z,1015.98
2016-06-24T07:41:05.876Z,1015.99
2016-06-24T07:42:05.858Z,1015.97
2016-06-24T07:43:05.854Z,1015.94
2016-06-24T07:44:05.833Z,1015.94
2016-06-24T07:45:05.817Z,1015.92
2016-06-24T07:46:05.803Z,1015.88
2016-06-24T07:47:05.794Z,1015.89
2016-06-24T07:48:05.775Z,1015.9
2016-06-24T07:49:05.779Z,1015.9
2016-06-24T07:50:05.748Z,1015.96
2016-06-24T07:51:05.736Z,1015.88
2016-06-24T07:52:05.716Z,1015.92
2016-06-24T07:53:05.702Z,1015.92
2016-06-24T07:54:05.688Z,1015.9
2016-06-24T07:55:05.681Z,1015.96
2016-06-24T07:56:05.662Z,1015.87
2016-06-24T07:57:05.651Z,1015.86
2016-06-24T07:58:05.633Z,1015.85
2016-06-24T07:59:05.618Z,1015.81
2016-06-24T08:00:05.603Z,1015.8
2016-06-24T08:01:05.594Z,1015.82
2016-06-24T08:02:05.577Z,1015.75
2016-06-24T08:03:05.559Z,1015.71
2016-06-24T08:04:05.546Z,1015.75
2016-06-24T08:05:05.572Z,1015.72
2016-06-24T08:06:05.516Z,1015.75
2016-06-24T08:07:05.504Z,1015.77
2016-06-24T08:08:05.486Z,1015.78
2016-06-24T08:09:05.477Z,1015.76
2016-06-24T08:10:05.462Z,1015.81
2016-06-24T08:11:05.451Z,1015.81
2016-06-24T08:12:05.437Z,1015.79
2016-06-24T08:13:05.420Z,1015.75
2016-06-24T08:14:05.404Z,1015.8
2016-06-24T08:15:05.394Z,1015.83
2016-06-24T08:16:05.375Z,1015.87
2016-06-24T08:17:05.362Z,1015.82
2016-06-24T08:18:05.349Z,1015.77
2016-06-24T08:19:05.348Z,1015.85
2016-06-24T08:20:05.326Z,1015.89
2016-06-24T08:21:05.303Z,1015.82
2016-06-24T08:22:05.293Z,1015.9
2016-06-24T08:23:05.276Z,1015.88
2016-06-24T08:24:05.265Z,1015.9
2016-06-24T08:25:05.254Z,1015.87
2016-06-24T08:26:05.236Z,1015.91
2016-06-24T08:27:05.223Z,1015.89
2016-06-24T08:28:05.210Z,1015.84
2016-06-24T08:29:05.194Z,1015.86
2016-06-24T08:30:05.180Z,1015.87
2016-06-24T08:31:05.168Z,1015.84
2016-06-24T08:32:05.155Z,1015.78
2016-06-24T08:33:05.142Z,1015.83
2016-06-24T08:34:05.128Z,1015.84
2016-06-24T08:35:05.116Z,1015.82
2016-06-24T08:36:05.099Z,1015.8
2016-06-24T08:37:05.081Z,1015.74
2016-06-24T08:38:05.075Z,1015.83
2016-06-24T08:39:05.055Z,1015.83
2016-06-24T08:40:05.047Z,1015.84
2016-06-24T08:41:05.030Z,1015.83
2016-06-24T08:42:05.018Z,1015.84
2016-06-24T08:43:05.014Z,1015.92
2016-06-24T08:44:04.986Z,1015.84
2016-06-24T08:45:04.981Z,1015.81
2016-06-24T08:46:04.961Z,1015.83
2016-06-24T08:47:04.946Z,1015.84
2016-06-24T08:48:04.930Z,1015.82
2016-06-24T08:49:04.922Z,1015.85
2016-06-24T08:50:04.903Z,1015.83
2016-06-24T08:51:04.892Z,1015.92
2016-06-24T08:52:04.882Z,1015.88
2016-06-24T08:53:04.863Z,1015.84
2016-06-24T08:54:04.847Z,1015.81
2016-06-24T08:55:04.839Z,1015.8
2016-06-24T08:56:04.819Z,1015.85
2016-06-24T08:57:04.814Z,1015.88
2016-06-24T08:58:04.797Z,1015.83
2016-06-24T08:59:04.782Z,1015.81
2016-06-24T09:00:04.796Z,1015.82
2016-06-24T09:01:04.754Z,1015.8
2016-06-24T09:02:04.744Z,1015.81
2016-06-24T09:03:04.724Z,1015.76
2016-06-24T09:04:04.724Z,1015.82
2016-06-24T09:05:04.702Z,1015.8
2016-06-24T09:06:04.692Z,1015.84
2016-06-24T09:07:04.672Z,1015.81
2016-06-24T09:08:04.654Z,1015.85
2016-06-24T09:09:04.647Z,1015.79
2016-06-24T09:10:04.638Z,1015.72
2016-06-24T09:11:04.617Z,1015.72
2016-06-24T09:12:04.646Z,1015.66
2016-06-24T09:13:04.594Z,1015.71
2016-06-24T09:14:04.588Z,1015.7
2016-06-24T09:15:04.564Z,1015.76
2016-06-24T09:16:04.550Z,1015.78
2016-06-24T09:17:04.535Z,1015.87
2016-06-24T09:18:04.528Z,1015.74
2016-06-24T09:19:04.515Z,1015.79
2016-06-24T09:20:04.499Z,1015.76
2016-06-24T09:21:04.489Z,1015.76
2016-06-24T09:22:04.474Z,1015.82
2016-06-24T09:23:04.455Z,1015.72
2016-06-24T09:24:04.447Z,1015.71
2016-06-24T09:25:04.433Z,1015.74
2016-06-24T09:26:04.413Z,1015.76
2016-06-24T09:27:04.401Z,1015.78
2016-06-24T09:28:04.394Z,1015.73
2016-06-24T09:29:04.378Z,1015.71
2016-06-24T09:30:04.366Z,1015.73
2016-06-24T09:31:04.349Z,1015.71
2016-06-24T09:32:04.335Z,1015.72
2016-06-24T09:33:04.325Z,1015.76
2016-06-24T09:34:04.311Z,1015.72
2016-06-24T09:35:04.315Z,1015.74
2016-06-24T09:36:04.281Z,1015.72
2016-06-24T09:37:04.271Z,1015.72
2016-06-24T09:38:04.257Z,1015.74
2016-06-24T09:39:04.242Z,1015.71
2016-06-24T09:40:04.229Z,1015.71
2016-06-24T09:41:04.217Z,1015.75
2016-06-24T09:42:04.201Z,1015.7
2016-06-24T09:43:04.188Z,1015.71
2016-06-24T09:44:04.178Z,1015.7
2016-06-24T09:45:04.159Z,1015.73
2016-06-24T09:46:04.155Z,1015.78
2016-06-24T09:47:04.281Z,1015.73
2016-06-24T09:48:04.129Z,1015.79
2016-06-24T09:49:04.107Z,1015.86
2016-06-24T09:50:04.100Z,1015.81
2016-06-24T09:51:04.096Z,1015.84
2016-06-24T09:52:04.065Z,1015.77
2016-06-24T09:53:04.066Z,1015.86
2016-06-24T09:54:04.050Z,1015.84
2016-06-24T09:55:04.032Z,1015.81
2016-06-24T09:56:04.022Z,1015.84
2016-06-24T09:57:04.281Z,1015.82
2016-06-24T09:58:03.994Z,1015.84
2016-06-24T09:59:03.981Z,1015.88
2016-06-24T10:00:03.967Z,1015.83
2016-06-24T10:01:03.954Z,1015.84
2016-06-24T10:02:03.937Z,1015.89
2016-06-24T10:03:03.920Z,1015.8
2016-06-24T10:04:03.921Z,1015.75
2016-06-24T10:05:03.898Z,1015.76
2016-06-24T10:06:03.914Z,1015.8
2016-06-24T10:07:03.874Z,1015.77
2016-06-24T10:08:03.864Z,1015.82
2016-06-24T10:09:03.845Z,1015.73
2016-06-24T10:10:03.838Z,1015.77
2016-06-24T10:11:03.822Z,1015.74
2016-06-24T10:12:03.809Z,1015.77
2016-06-24T10:13:03.800Z,1015.79
2016-06-24T10:14:03.785Z,1015.8
2016-06-24T10:15:03.767Z,1015.8
2016-06-24T10:16:03.762Z,1015.73
2016-06-24T10:17:03.750Z,1015.83
2016-06-24T10:18:03.726Z,1015.88
2016-06-24T10:19:03.719Z,1015.77
2016-06-24T10:20:03.704Z,1015.76
2016-06-24T10:21:03.694Z,1015.77
2016-06-24T10:22:03.685Z,1015.81
2016-06-24T10:23:03.674Z,1015.81
2016-06-24T10:24:03.657Z,1015.79
2016-06-24T10:25:03.672Z,1015.84
2016-06-24T10:26:03.630Z,1015.79
2016-06-24T10:27:03.618Z,1015.78
2016-06-24T10:28:03.598Z,1015.84
2016-06-24T10:29:03.588Z,1015.84
2016-06-24T10:30:03.579Z,1015.84
2016-06-24T10:31:03.564Z,1015.89
2016-06-24T10:32:03.561Z,1015.83
2016-06-24T10:33:03.536Z,1015.88
2016-06-24T10:34:03.527Z,1015.93
2016-06-24T10:35:03.518Z,1015.93
2016-06-24T10:36:03.506Z,1015.89
2016-06-24T10:37:03.584Z,1015.9
2016-06-24T10:38:03.680Z,1015.93
2016-06-24T10:39:03.467Z,1016.01
2016-06-24T10:40:03.455Z,1015.95
2016-06-24T10:41:03.440Z,1015.98
2016-06-24T10:42:03.429Z,1016.05
2016-06-24T10:43:03.414Z,1016.04
2016-06-24T10:44:03.407Z,1015.99
2016-06-24T10:45:03.387Z,1015.99
2016-06-24T10:46:03.376Z,1016.03
2016-06-24T10:47:03.365Z,1016.06
2016-06-24T10:48:03.346Z,1016.06
2016-06-24T10:49:03.340Z,1016.04
2016-06-24T10:50:03.327Z,1016.04
2016-06-24T10:51:03.310Z,1016.08
2016-06-24T10:52:03.307Z,1016.02
2016-06-24T10:53:03.289Z,1016.16
2016-06-24T10:54:03.274Z,1016.05
2016-06-24T10:55:03.266Z,1016.03
2016-06-24T10:56:03.264Z,1016.05
2016-06-24T10:57:03.242Z,1016.05
2016-06-24T10:58:03.228Z,1016.19
2016-06-24T10:59:03.211Z,1016.1
2016-06-24T11:00:03.203Z,1016.07
2016-06-24T11:01:03.186Z,1016.03
2016-06-24T11:02:03.178Z,1016.02
2016-06-24T11:03:03.167Z,1016.09
2016-06-24T11:04:03.166Z,1016.07
2016-06-24T11:05:03.137Z,1016.07
2016-06-24T11:06:03.165Z,1016.18
2016-06-24T11:07:03.312Z,1016.07
2016-06-24T11:08:03.104Z,1016.04
2016-06-24T11:09:03.094Z,1015.98
2016-06-24T11:10:03.075Z,1016.04
2016-06-24T11:11:03.067Z,1016
2016-06-24T11:12:03.083Z,1016.01
2016-06-24T11:13:03.071Z,1015.89
2016-06-24T11:14:03.036Z,1015.87
2016-06-24T11:15:03.030Z,1015.85
2016-06-24T11:16:03.025Z,1015.9
2016-06-24T11:17:03.291Z,1015.93
2016-06-24T11:18:02.985Z,1015.98
2016-06-24T11:19:02.966Z,1015.93
2016-06-24T11:20:02.958Z,1015.89
2016-06-24T11:21:02.952Z,1015.91
2016-06-24T11:22:02.933Z,1015.89
2016-06-24T11:23:02.925Z,1015.9
2016-06-24T11:24:02.918Z,1015.93
2016-06-24T11:25:02.900Z,1015.86
2016-06-24T11:26:02.890Z,1016.02
2016-06-24T11:27:02.882Z,1015.89
2016-06-24T11:28:02.857Z,1015.89
2016-06-24T11:29:02.846Z,1015.91
2016-06-24T11:30:02.833Z,1015.91
2016-06-24T11:31:02.826Z,1015.95
2016-06-24T11:32:02.813Z,1015.97
2016-06-24T11:33:02.799Z,1015.89
2016-06-24T11:34:02.793Z,1016.05
2016-06-24T11:35:02.776Z,1016.09
2016-06-24T11:36:02.767Z,1015.98
2016-06-24T11:37:02.754Z,1016.04
2016-06-24T11:38:02.764Z,1015.87
2016-06-24T11:39:02.736Z,1015.83
2016-06-24T11:40:02.840Z,1015.85
2016-06-24T11:41:02.723Z,1015.91
2016-06-24T11:42:02.843Z,1016
2016-06-24T11:43:02.701Z,1015.95
2016-06-24T11:44:02.813Z,1015.96
2016-06-24T11:45:02.959Z,1016.01
2016-06-24T11:46:02.811Z,1015.95
2016-06-24T11:47:02.829Z,1015.93
2016-06-24T11:48:02.678Z,1015.89
2016-06-24T11:49:02.659Z,1015.84
2016-06-24T11:50:02.649Z,1015.84
2016-06-24T11:51:02.645Z,1015.86
2016-06-24T11:52:02.646Z,1015.96
2016-06-24T11:53:02.642Z,1015.92
2016-06-24T11:54:02.632Z,1015.9
2016-06-24T11:55:02.629Z,1015.88
2016-06-24T11:56:02.629Z,1015.91
2016-06-24T11:57:02.637Z,1015.86
2016-06-24T11:58:02.621Z,1015.88
2016-06-24T11:59:02.613Z,1015.8
2016-06-24T12:00:02.618Z,1015.8
2016-06-24T12:01:02.614Z,1015.86
2016-06-24T12:02:02.605Z,1015.85
2016-06-24T12:03:02.621Z,1015.8
2016-06-24T12:04:02.606Z,1015.8
2016-06-24T12:05:02.596Z,1015.84
2016-06-24T12:06:02.609Z,1015.79
2016-06-24T12:07:02.613Z,1015.83
2016-06-24T12:08:02.599Z,1015.85
2016-06-24T12:09:02.607Z,1015.88
2016-06-24T12:10:02.609Z,1015.85